Time;durP1;ratioP1;P1;durP2;ratioP2;P2;SDS_P1;SDS_P2;PMS_P1;PMS_P2;Temp;Humidity;BMP_temperature;BMP_pressure;BME280_temperature;BME280_humidity;BME280_pressure;Samples;Min_cycle;Max_cycle;Signal;HPM_P1;HPM_P2
2022/06/25 00:00:42;;;;;;;11.85;9.30;;;;;;;21.59;57.11;100777.06;5240155;28;20515;-37
2022/06/25 00:03:14;;;;;;;13.77;9.38;;;;;;;21.56;57.20;100782.06;5238048;28;20455;-36
2022/06/25 00:05:47;;;;;;;13.13;9.88;;;;;;;21.45;57.21;100770.16;5219456;28;20411;-37
2022/06/25 00:08:19;;;;;;;12.80;9.50;;;;;;;21.38;57.37;100764.06;5237121;28;20424;-37
2022/06/25 00:10:55;;;;;;;11.63;9.85;;;;;;;21.45;57.49;100780.09;5240961;28;20545;-37
2022/06/25 00:13:30;;;;;;;12.18;9.13;;;;;;;21.41;57.41;100777.03;5234212;28;20410;-36
2022/06/25 00:16:04;;;;;;;12.35;9.82;;;;;;;21.42;57.45;100779.50;5231357;28;20534;-36
2022/06/25 00:18:36;;;;;;;14.60;9.80;;;;;;;21.40;57.39;100784.28;5227630;28;20429;-38
2022/06/25 00:21:11;;;;;;;13.13;10.85;;;;;;;21.41;57.35;100785.09;5242181;28;20485;-40
2022/06/25 00:23:43;;;;;;;11.18;9.07;;;;;;;21.33;57.36;100774.59;5244192;28;20567;-37
2022/06/25 00:26:16;;;;;;;16.10;10.02;;;;;;;21.30;57.58;100769.69;5239526;28;20449;-36
2022/06/25 00:28:49;;;;;;;15.55;10.70;;;;;;;21.27;57.63;100770.13;5241255;28;20529;-37
2022/06/25 00:31:22;;;;;;;13.73;10.50;;;;;;;21.34;57.75;100776.28;5237383;28;20480;-37
2022/06/25 00:33:54;;;;;;;16.50;11.48;;;;;;;21.27;57.70;100776.31;5241917;28;20425;-38
2022/06/25 00:36:29;;;;;;;14.68;10.52;;;;;;;21.20;57.76;100762.13;5238771;28;20978;-36
2022/06/25 00:39:04;;;;;;;12.27;10.52;;;;;;;21.22;58.04;100775.34;5244012;28;20417;-38
2022/06/25 00:41:37;;;;;;;12.70;10.15;;;;;;;20.87;57.87;100722.16;5231311;28;20965;-37
2022/06/25 00:44:11;;;;;;;13.13;9.90;;;;;;;21.13;57.85;100772.94;5234976;28;20468;-36
2022/06/25 00:46:46;;;;;;;10.75;9.05;;;;;;;21.15;58.15;100784.28;5237568;28;20556;-37
2022/06/25 00:49:18;;;;;;;10.88;8.70;;;;;;;20.95;58.41;100765.66;5242771;28;20424;-37
2022/06/25 00:51:53;;;;;;;9.88;8.40;;;;;;;20.92;58.30;100754.53;5236637;28;20410;-36
2022/06/25 00:54:30;;;;;;;11.45;7.82;;;;;;;21.09;58.39;100790.53;5236025;28;20427;-36
2022/06/25 00:57:05;;;;;;;10.33;7.60;;;;;;;21.07;58.56;100794.50;5242870;28;20919;-40
2022/06/25 00:59:43;;;;;;;11.10;8.70;;;;;;;20.97;58.60;100789.63;5234615;28;20900;-36
2022/06/25 01:02:16;;;;;;;10.43;8.10;;;;;;;20.80;58.58;100767.03;5234388;28;20430;-37
2022/06/25 01:04:49;;;;;;;12.10;8.73;;;;;;;20.91;58.66;100787.81;5242911;28;20487;-36
2022/06/25 01:07:21;;;;;;;10.55;7.75;;;;;;;20.98;58.92;100804.69;5232794;28;20500;-36
2022/06/25 01:09:54;;;;;;;10.55;7.95;;;;;;;20.98;58.79;100802.00;5236496;28;20410;-37
2022/06/25 01:12:26;;;;;;;10.60;7.75;;;;;;;20.99;58.86;100813.53;5235637;28;20436;-36
2022/06/25 01:15:07;;;;;;;15.18;8.20;;;;;;;20.96;58.85;100814.81;5232979;28;20495;-36
2022/06/25 01:17:43;;;;;;;10.27;7.75;;;;;;;20.93;58.93;100808.03;5225798;28;20483;-35
2022/06/25 01:20:18;;;;;;;10.73;7.63;;;;;;;20.88;59.06;100809.72;5232461;28;20436;-35
2022/06/25 01:22:52;;;;;;;9.30;7.50;;;;;;;20.81;59.05;100795.50;5236170;28;21024;-35
2022/06/25 01:25:24;;;;;;;12.35;8.25;;;;;;;20.86;59.19;100801.06;5238345;28;20406;-39
2022/06/25 01:27:57;;;;;;;12.00;8.07;;;;;;;20.85;59.03;100807.47;5232495;28;20895;-36
2022/06/25 01:30:30;;;;;;;9.75;7.50;;;;;;;20.88;59.10;100812.41;5244333;28;20403;-35
2022/06/25 01:33:02;;;;;;;12.43;7.57;;;;;;;20.84;59.00;100817.41;5235251;28;20605;-38
2022/06/25 01:35:35;;;;;;;9.03;7.63;;;;;;;20.87;59.15;100821.47;5236998;28;20460;-43
2022/06/25 01:38:08;;;;;;;10.30;7.67;;;;;;;20.88;59.17;100828.50;5249356;28;20467;-48
2022/06/25 01:40:41;;;;;;;10.30;8.05;;;;;;;20.82;59.13;100824.03;5238585;28;20429;-36
2022/06/25 01:43:13;;;;;;;11.50;7.82;;;;;;;20.84;59.13;100833.50;5235521;28;20962;-41
2022/06/25 01:45:47;;;;;;;10.52;7.93;;;;;;;20.80;59.13;100834.97;5247728;28;20414;-37
2022/06/25 01:48:19;;;;;;;11.27;8.55;;;;;;;20.81;59.30;100833.09;5237923;28;20418;-36
2022/06/25 01:50:51;;;;;;;7.88;6.70;;;;;;;20.82;59.12;100829.38;5240982;28;20429;-36
2022/06/25 01:53:25;;;;;;;10.88;7.90;;;;;;;20.78;59.32;100828.16;5237404;28;20490;-39
2022/06/25 01:55:58;;;;;;;11.40;7.88;;;;;;;20.75;59.55;100829.44;5244359;28;20463;-36
2022/06/25 01:58:30;;;;;;;11.10;8.15;;;;;;;20.73;59.53;100843.06;5235511;28;20423;-38
2022/06/25 02:01:04;;;;;;;11.40;8.02;;;;;;;20.72;59.60;100840.59;5239441;28;20790;-37
2022/06/25 02:03:36;;;;;;;12.32;8.20;;;;;;;20.64;59.61;100830.13;5231622;28;20427;-37
2022/06/25 02:06:09;;;;;;;8.57;7.68;;;;;;;20.63;59.66;100842.72;5235121;28;20404;-35
2022/06/25 02:08:43;;;;;;;11.10;7.70;;;;;;;20.64;59.72;100854.28;5236286;28;20412;-35
2022/06/25 02:11:15;;;;;;;12.30;8.80;;;;;;;20.62;59.82;100857.16;5236236;28;20412;-35
2022/06/25 02:13:48;;;;;;;11.27;8.20;;;;;;;20.53;59.89;100853.06;5233560;28;22900;-35
2022/06/25 02:16:20;;;;;;;11.90;8.85;;;;;;;20.55;59.95;100850.19;5242262;28;20505;-35
2022/06/25 02:18:52;;;;;;;13.77;9.13;;;;;;;20.54;59.94;100853.94;5239164;28;21437;-36
2022/06/25 02:21:30;;;;;;;13.23;8.73;;;;;;;20.50;60.05;100858.84;5246142;28;20414;-36
2022/06/25 02:24:04;;;;;;;14.30;9.30;;;;;;;20.49;60.10;100854.53;5221794;28;20453;-37
2022/06/25 02:26:37;;;;;;;12.63;9.25;;;;;;;20.46;60.23;100854.94;5207754;28;20431;-37
2022/06/25 02:29:09;;;;;;;11.75;9.00;;;;;;;20.16;60.14;100846.63;5238910;28;20436;-36
2022/06/25 02:31:41;;;;;;;13.48;9.65;;;;;;;20.35;60.20;100845.72;5240803;28;20417;-36
2022/06/25 02:34:14;;;;;;;12.18;9.63;;;;;;;20.43;60.28;100874.16;5235682;28;20534;-36
2022/06/25 02:36:46;;;;;;;14.93;9.52;;;;;;;20.33;60.29;100860.41;5232833;28;20430;-36
2022/06/25 02:39:21;;;;;;;10.82;9.07;;;;;;;20.20;60.59;100847.88;5236317;28;20420;-35
2022/06/25 02:41:53;;;;;;;14.13;9.85;;;;;;;20.33;60.31;100885.34;5237889;28;25858;-36
2022/06/25 02:44:26;;;;;;;15.18;9.77;;;;;;;20.29;60.30;100872.59;5236504;28;20414;-36
2022/06/25 02:46:58;;;;;;;13.38;9.55;;;;;;;20.32;60.48;100882.91;5240395;28;20412;-35
2022/06/25 02:49:31;;;;;;;14.23;8.93;;;;;;;20.31;60.59;100882.03;5236733;28;20441;-36
2022/06/25 02:52:04;;;;;;;15.77;9.07;;;;;;;20.31;60.71;100884.72;5237563;28;20945;-35
2022/06/25 02:54:38;;;;;;;15.73;9.43;;;;;;;20.27;60.74;100896.94;5232059;28;20426;-35
2022/06/25 03:00:04;;;;;;;17.77;8.75;;;;;;;20.18;60.68;100887.47;5234403;28;20419;-37
2022/06/25 03:02:37;;;;;;;16.52;8.90;;;;;;;20.24;60.93;100906.22;5235732;28;20426;-36
2022/06/25 03:05:09;;;;;;;17.80;8.53;;;;;;;20.14;61.02;100892.44;5236278;28;20472;-35
2022/06/25 03:07:42;;;;;;;12.32;8.32;;;;;;;20.22;61.11;100904.78;5239482;28;20417;-37
2022/06/25 03:10:15;;;;;;;16.85;8.48;;;;;;;20.22;60.91;100902.09;5237629;28;20496;-35
2022/06/25 03:12:48;;;;;;;12.75;8.38;;;;;;;20.21;61.18;100914.69;5240105;28;20418;-37
2022/06/25 03:15:20;;;;;;;15.10;8.75;;;;;;;20.19;61.15;100905.19;5246135;28;20673;-35
2022/06/25 03:17:53;;;;;;;16.05;8.77;;;;;;;20.14;61.07;100907.72;5242683;28;20424;-38
2022/06/25 03:20:25;;;;;;;17.27;8.55;;;;;;;20.15;61.25;100910.16;5235390;28;20478;-35
2022/06/25 03:22:58;;;;;;;17.98;8.65;;;;;;;20.15;61.18;100910.16;5240400;28;21233;-34
2022/06/25 03:25:31;;;;;;;18.17;8.60;;;;;;;20.16;61.26;100911.84;5240566;28;20888;-37
2022/06/25 03:28:04;;;;;;;12.80;7.90;;;;;;;20.15;61.33;100915.53;5230358;28;20717;-36
2022/06/25 03:30:37;;;;;;;11.73;8.02;;;;;;;20.16;61.26;100917.19;5233704;28;20546;-35
2022/06/25 03:33:10;;;;;;;13.40;8.23;;;;;;;20.14;61.20;100919.25;5237349;28;20418;-35
2022/06/25 03:35:42;;;;;;;13.63;7.60;;;;;;;20.16;61.21;100922.56;5245492;28;20452;-35
2022/06/25 03:38:14;;;;;;;13.73;6.97;;;;;;;20.14;61.16;100924.63;5241207;28;20493;-36
2022/06/25 03:40:48;;;;;;;12.40;7.50;;;;;;;20.01;61.29;100905.91;5235648;28;20506;-38
2022/06/25 03:43:20;;;;;;;14.23;7.90;;;;;;;20.18;61.40;100925.00;5241986;28;20926;-37
2022/06/25 03:45:53;;;;;;;14.13;7.28;;;;;;;20.20;61.30;100926.44;5243041;28;20421;-37
2022/06/25 03:48:25;;;;;;;14.20;6.60;;;;;;;20.21;61.36;100930.78;5237812;28;20402;-36
2022/06/25 03:50:58;;;;;;;11.38;6.43;;;;;;;20.27;61.32;100934.47;5237753;28;20493;-36
2022/06/25 03:53:30;;;;;;;13.23;5.95;;;;;;;20.22;61.26;100927.06;5234125;28;20411;-36
2022/06/25 03:56:04;;;;;;;11.13;6.28;;;;;;;20.20;61.29;100923.78;5226849;28;20509;-36
2022/06/25 03:58:37;;;;;;;10.60;6.13;;;;;;;20.30;61.23;100936.72;5230976;28;20433;-36
2022/06/25 04:01:09;;;;;;;13.52;6.10;;;;;;;20.23;61.19;100926.03;5240430;28;20518;-35
2022/06/25 04:03:43;;;;;;;10.07;5.03;;;;;;;20.30;61.29;100938.59;5221002;28;20422;-36
2022/06/25 04:06:16;;;;;;;9.40;5.38;;;;;;;20.22;61.34;100927.06;5239412;28;20834;-37
2022/06/25 04:08:48;;;;;;;7.72;4.28;;;;;;;20.39;61.31;100948.06;5238241;28;20849;-37
2022/06/25 04:11:22;;;;;;;8.40;5.35;;;;;;;20.39;61.20;100921.22;5233112;28;20424;-35
2022/06/25 04:13:54;;;;;;;8.18;4.70;;;;;;;20.57;61.17;100932.13;5240102;28;20414;-36
2022/06/25 04:16:27;;;;;;;8.27;4.68;;;;;;;20.66;61.14;100938.91;5234192;28;20881;-37
2022/06/25 04:18:59;;;;;;;11.07;5.05;;;;;;;20.76;60.90;100937.63;5239654;28;20420;-35
2022/06/25 04:21:32;;;;;;;6.72;4.53;;;;;;;20.65;60.76;100910.41;5241123;28;20774;-38
2022/06/25 04:24:05;;;;;;;7.97;4.70;;;;;;;20.92;60.64;100932.56;5234308;28;20433;-36
2022/06/25 04:26:39;;;;;;;8.93;4.00;;;;;;;21.01;60.50;100941.19;5232696;28;20457;-36
2022/06/25 04:29:10;;;;;;;7.13;3.92;;;;;;;21.10;60.40;100945.25;5238505;28;20865;-36
2022/06/25 04:31:44;;;;;;;14.75;4.47;;;;;;;21.13;60.36;100947.50;5233167;28;20534;-36
2022/06/25 04:34:16;;;;;;;11.77;4.23;;;;;;;21.13;60.30;100950.19;5239247;28;20563;-35
2022/06/25 04:36:49;;;;;;;8.30;4.07;;;;;;;21.12;60.23;100950.38;5241139;28;20863;-38
2022/06/25 04:39:21;;;;;;;7.22;3.92;;;;;;;21.15;60.21;100956.19;5240721;28;20481;-36
2022/06/25 04:41:55;;;;;;;11.55;4.32;;;;;;;21.19;59.96;100960.06;5234830;28;20502;-36
2022/06/25 04:44:27;;;;;;;12.05;4.53;;;;;;;21.16;59.88;100954.31;5246726;28;20547;-35
2022/06/25 04:46:59;;;;;;;8.18;3.97;;;;;;;21.14;59.87;100962.56;5234044;28;20460;-35
2022/06/25 04:49:32;;;;;;;12.07;4.60;;;;;;;21.18;59.98;100968.31;5241042;28;20508;-35
2022/06/25 04:52:05;;;;;;;7.22;4.13;;;;;;;21.23;59.78;100975.75;5231299;28;20439;-38
2022/06/25 04:54:38;;;;;;;7.85;4.07;;;;;;;21.28;59.74;100967.88;5231328;28;20527;-36
2022/06/25 04:57:12;;;;;;;10.52;4.13;;;;;;;21.36;59.39;100971.13;5240654;28;20492;-36
2022/06/25 04:59:44;;;;;;;9.97;3.97;;;;;;;21.48;59.32;100978.50;5234055;28;20531;-36
2022/06/25 05:02:17;;;;;;;9.00;3.85;;;;;;;21.56;59.06;100979.06;5235781;28;20467;-36
2022/06/25 05:04:50;;;;;;;11.88;3.92;;;;;;;21.60;58.95;100977.56;5237251;28;21204;-37
2022/06/25 05:07:22;;;;;;;7.63;3.75;;;;;;;22.07;58.33;100983.34;5233331;28;20426;-37
2022/06/25 05:09:55;;;;;;;8.88;4.45;;;;;;;22.65;57.61;100974.03;5234417;28;22076;-37
2022/06/25 05:15:18;;;;;;;9.85;3.83;;;;;;;22.69;57.20;100987.84;5238655;28;20414;-39
2022/06/25 05:17:51;;;;;;;7.20;4.07;;;;;;;22.47;57.52;100974.03;5240212;28;20509;-36
2022/06/25 05:20:23;;;;;;;7.60;3.60;;;;;;;22.28;57.24;100998.25;5236980;28;20422;-36
2022/06/25 05:22:56;;;;;;;12.35;4.50;;;;;;;22.20;57.28;100986.97;5233719;28;20522;-37
2022/06/25 05:25:29;;;;;;;10.60;4.68;;;;;;;22.14;57.25;100985.94;5221836;28;20418;-36
2022/06/25 05:28:04;;;;;;;9.55;4.05;;;;;;;21.97;57.24;100983.03;5229621;28;20415;-36
2022/06/25 05:30:37;;;;;;;11.45;4.30;;;;;;;21.93;57.22;100991.78;5228279;28;20502;-40
2022/06/25 05:33:09;;;;;;;11.20;4.32;;;;;;;21.98;57.22;101011.56;5240813;28;20476;-44
2022/06/25 05:35:41;;;;;;;11.10;4.15;;;;;;;21.99;56.97;101013.22;5239975;28;20450;-37
2022/06/25 05:38:14;;;;;;;9.27;4.70;;;;;;;21.99;56.99;101023.13;5234956;28;20551;-37
2022/06/25 05:40:46;;;;;;;12.73;4.93;;;;;;;22.04;57.11;101018.75;5234299;28;20433;-36
2022/06/25 05:43:22;;;;;;;13.02;5.10;;;;;;;22.46;56.67;101018.97;5231119;28;20850;-37
2022/06/25 05:45:54;;;;;;;8.35;3.97;;;;;;;23.70;55.28;101029.38;5234857;28;20441;-36
2022/06/25 05:48:27;;;;;;;11.02;3.80;;;;;;;24.63;54.06;101030.44;5230465;28;20454;-37
2022/06/25 05:51:01;;;;;;;6.43;3.00;;;;;;;25.42;53.09;101032.50;5230942;28;20402;-36
2022/06/25 05:53:35;;;;;;;8.73;3.53;;;;;;;26.52;51.84;101027.47;5234979;28;20417;-36
2022/06/25 05:56:07;;;;;;;14.23;3.75;;;;;;;27.45;50.51;101036.38;5232330;28;20898;-36
2022/06/25 05:58:41;;;;;;;8.73;3.45;;;;;;;27.83;49.87;101031.03;5236127;28;20426;-36
2022/06/25 06:01:13;;;;;;;6.28;3.40;;;;;;;28.36;49.11;101027.25;5240922;28;20497;-37
2022/06/25 06:03:45;;;;;;;7.35;3.05;;;;;;;29.33;47.79;101032.25;5232769;28;20455;-36
2022/06/25 06:06:18;;;;;;;8.93;3.58;;;;;;;30.21;46.56;101042.88;5231952;28;20501;-37
2022/06/25 06:08:50;;;;;;;6.80;2.60;;;;;;;30.78;45.70;101047.06;5242117;28;20481;-37
2022/06/25 06:11:23;;;;;;;9.20;3.20;;;;;;;31.07;45.02;101043.63;5246099;28;20511;-37
2022/06/25 06:13:56;;;;;;;7.82;3.00;;;;;;;30.59;45.33;101037.84;5237775;28;20406;-38
2022/06/25 06:16:29;;;;;;;9.02;2.83;;;;;;;29.78;45.91;101049.72;5237981;28;20751;-37
2022/06/25 06:19:01;;;;;;;7.03;2.83;;;;;;;29.14;46.31;101053.69;5250728;28;20897;-37
2022/06/25 06:21:34;;;;;;;10.43;2.88;;;;;;;29.27;46.22;101060.56;5253024;28;20805;-37
2022/06/25 06:24:07;;;;;;;12.23;2.30;;;;;;;29.19;45.91;101056.44;5249984;28;20412;-37
2022/06/25 06:26:40;;;;;;;8.18;2.83;;;;;;;28.95;45.94;101059.59;5253617;28;20422;-36
2022/06/25 06:29:14;;;;;;;5.72;2.65;;;;;;;29.13;45.70;101054.78;5240633;28;20432;-37
2022/06/25 06:31:49;;;;;;;10.25;2.80;;;;;;;29.94;44.63;101053.25;5252184;28;20501;-37
2022/06/25 06:34:21;;;;;;;6.47;2.50;;;;;;;30.60;43.65;101053.13;5202890;28;20488;-37
2022/06/25 06:36:54;;;;;;;6.53;2.27;;;;;;;31.22;42.90;101046.25;5248887;28;23849;-36
2022/06/25 06:39:26;;;;;;;7.22;2.50;;;;;;;31.77;41.96;101034.38;5239470;28;20512;-37
2022/06/25 06:41:59;;;;;;;9.00;2.65;;;;;;;32.07;41.57;101055.16;5238277;28;20755;-37
2022/06/25 06:44:32;;;;;;;4.05;2.13;;;;;;;32.54;40.94;101046.19;5241915;28;20404;-37
2022/06/25 06:47:05;;;;;;;3.88;1.80;;;;;;;32.64;40.67;101052.63;5230397;28;20400;-37
2022/06/25 06:49:38;;;;;;;4.57;2.53;;;;;;;32.51;40.88;101052.22;5224161;28;20426;-37
2022/06/25 06:52:10;;;;;;;5.03;2.22;;;;;;;32.24;40.63;101052.81;5230595;28;20496;-37
2022/06/25 06:54:43;;;;;;;8.07;2.50;;;;;;;31.88;40.93;101055.03;5237075;28;20808;-37
2022/06/25 06:57:15;;;;;;;6.70;2.65;;;;;;;31.31;41.07;101064.75;5236019;28;20499;-37
2022/06/25 06:59:49;;;;;;;6.83;2.70;;;;;;;30.52;41.48;101043.59;5231073;28;20895;-37
2022/06/25 07:02:21;;;;;;;5.93;2.95;;;;;;;29.97;42.16;101077.19;5233999;28;21136;-36
2022/06/25 07:04:54;;;;;;;9.40;2.60;;;;;;;29.27;42.61;101076.88;5231792;28;20438;-37
2022/06/25 07:07:31;;;;;;;10.20;2.60;;;;;;;28.60;42.98;101051.34;5231138;28;20408;-36
2022/06/25 07:10:04;;;;;;;9.98;2.85;;;;;;;28.36;43.02;101084.31;5230917;28;20450;-37
2022/06/25 07:12:36;;;;;;;9.90;2.63;;;;;;;28.03;43.19;101075.41;5230523;28;20708;-37
2022/06/25 07:15:11;;;;;;;9.70;3.30;;;;;;;27.64;43.49;101082.94;5236401;28;20759;-37
2022/06/25 07:17:44;;;;;;;9.57;3.10;;;;;;;27.23;43.84;101084.44;5218525;28;20529;-37
2022/06/25 07:20:16;;;;;;;7.25;3.38;;;;;;;26.88;44.14;101075.63;5206482;28;20562;-37
2022/06/25 07:22:48;;;;;;;6.95;3.00;;;;;;;26.70;44.38;101085.94;5237324;28;20502;-37
2022/06/25 07:25:21;;;;;;;9.20;3.40;;;;;;;26.55;44.51;101081.16;5236271;28;20429;-36
2022/06/25 07:27:53;;;;;;;6.78;3.30;;;;;;;26.40;44.53;101087.94;5232977;28;20415;-36
2022/06/25 07:30:27;;;;;;;9.90;3.30;;;;;;;26.34;44.62;101090.84;5240471;28;20444;-37
2022/06/25 07:33:00;;;;;;;8.10;3.67;;;;;;;26.27;44.68;101087.50;5249137;28;20468;-36
2022/06/25 07:35:32;;;;;;;7.80;4.25;;;;;;;26.28;44.54;101091.81;5232073;28;20416;-37
2022/06/25 07:38:05;;;;;;;14.13;4.00;;;;;;;26.21;44.77;101087.41;5233565;28;20433;-37
2022/06/25 07:40:37;;;;;;;9.20;3.92;;;;;;;26.26;44.68;101094.75;5237821;28;20413;-37
2022/06/25 07:43:10;;;;;;;7.90;3.70;;;;;;;26.32;44.64;101103.78;5245224;28;20443;-37
2022/06/25 07:45:43;;;;;;;11.32;4.10;;;;;;;26.35;44.68;101092.47;5233326;28;20448;-37
2022/06/25 07:48:16;;;;;;;8.18;3.67;;;;;;;26.41;44.73;101096.88;5228304;28;20411;-38
2022/06/25 07:53:38;;;;;;;7.15;3.80;;;;;;;26.24;44.84;101104.22;5225751;28;20558;-38
2022/06/25 07:56:10;;;;;;;10.13;4.07;;;;;;;26.01;44.94;101114.13;5233356;28;20406;-36
2022/06/25 07:58:43;;;;;;;7.15;3.70;;;;;;;25.80;45.29;101126.50;5220663;28;20499;-36
2022/06/25 08:01:19;;;;;;;5.53;1.60;;;;;;;25.65;45.33;101132.44;5230387;28;20406;-36
2022/06/25 08:03:51;;;;;;;5.13;1.70;;;;;;;25.50;45.51;101137.56;5231613;28;20512;-36
2022/06/25 08:06:24;;;;;;;5.28;1.70;;;;;;;25.27;45.43;101136.63;5233113;28;20515;-37
2022/06/25 08:08:56;;;;;;;9.10;1.92;;;;;;;25.03;45.91;101140.41;5229405;28;20479;-37
2022/06/25 08:11:29;;;;;;;7.63;1.60;;;;;;;24.78;46.00;101149.59;5229895;28;20552;-40
2022/06/25 08:14:01;;;;;;;3.83;1.60;;;;;;;24.52;46.18;101139.28;5231478;28;20424;-36
2022/06/25 08:16:35;;;;;;;4.15;1.75;;;;;;;24.50;46.45;101157.63;5221272;28;20506;-36
2022/06/25 08:19:08;;;;;;;2.65;1.27;;;;;;;24.33;46.72;101147.44;5238471;28;20398;-37
2022/06/25 08:21:40;;;;;;;4.13;1.30;;;;;;;24.27;46.77;101150.28;5243817;28;20406;-43
2022/06/25 08:24:12;;;;;;;2.35;1.20;;;;;;;24.30;46.74;101169.50;5244336;28;20497;-37
2022/06/25 08:26:45;;;;;;;3.75;1.30;;;;;;;24.27;46.77;101148.38;5242535;28;20463;-38
2022/06/25 08:29:17;;;;;;;5.82;1.38;;;;;;;24.29;46.89;101157.09;5237730;28;20426;-36
2022/06/25 08:31:53;;;;;;;5.88;1.48;;;;;;;24.27;47.03;101159.19;5243058;28;20477;-40
2022/06/25 08:34:26;;;;;;;6.47;1.30;;;;;;;24.23;47.06;101163.41;5244440;28;20413;-40
2022/06/25 08:36:58;;;;;;;5.30;1.83;;;;;;;24.17;47.08;101153.53;5236418;28;20415;-39
2022/06/25 08:39:31;;;;;;;5.38;1.25;;;;;;;24.16;47.21;101151.91;5232186;28;20788;-37
2022/06/25 08:42:05;;;;;;;5.27;1.73;;;;;;;24.22;47.17;101159.09;5242216;28;20428;-36
2022/06/25 08:44:37;;;;;;;10.43;1.90;;;;;;;24.29;47.13;101162.47;5230977;28;20430;-37
2022/06/25 08:47:12;;;;;;;6.80;1.50;;;;;;;24.44;47.19;101164.75;5228952;28;20869;-36
2022/06/25 08:49:46;;;;;;;7.57;1.67;;;;;;;24.60;47.05;101164.06;5237158;28;20402;-37
2022/06/25 08:52:19;;;;;;;5.87;1.60;;;;;;;24.90;46.52;101162.25;5222585;28;20599;-38
2022/06/25 08:54:54;;;;;;;4.30;1.60;;;;;;;25.30;46.29;101171.28;5205027;28;21315;-38
2022/06/25 08:57:29;;;;;;;10.15;1.60;;;;;;;25.52;46.11;101176.03;5221796;28;20420;-39
2022/06/25 09:00:03;;;;;;;6.43;1.50;;;;;;;25.52;46.00;101170.63;5212022;28;20796;-39
2022/06/25 09:02:40;;;;;;;6.85;1.80;;;;;;;25.51;46.02;101177.06;5214820;28;20443;-37
2022/06/25 09:05:12;;;;;;;6.00;1.30;;;;;;;25.30;46.32;101178.53;5223364;28;20483;-37
2022/06/25 09:07:54;;;;;;;6.93;1.73;;;;;;;24.79;46.44;101134.22;5223874;28;20529;-38
2022/06/25 09:10:31;;;;;;;6.23;1.77;;;;;;;24.50;46.48;101104.44;5219899;28;20501;-38
2022/06/25 09:13:05;;;;;;;5.35;1.73;;;;;;;24.82;46.32;101183.19;5220482;28;20500;-37
2022/06/25 09:15:40;;;;;;;3.40;1.30;;;;;;;24.75;46.09;101176.28;5221613;28;20697;-36
2022/06/25 09:18:16;;;;;;;3.40;1.10;;;;;;;24.72;46.04;101188.38;5221431;28;20786;-38
2022/06/25 09:21:01;;;;;;;3.45;1.30;;;;;;;24.59;46.11;101183.22;5221568;28;20453;-38
2022/06/25 09:23:36;;;;;;;3.20;1.15;;;;;;;24.64;45.95;101185.19;5222870;28;20418;-39
2022/06/25 09:26:12;;;;;;;3.33;1.23;;;;;;;24.58;45.65;101181.53;5223581;28;20437;-38
2022/06/25 09:28:46;;;;;;;2.55;0.90;;;;;;;24.34;45.48;101141.03;5222604;28;20748;-38
2022/06/25 09:31:35;;;;;;;6.00;1.50;;;;;;;24.73;45.07;101184.59;5222900;28;20406;-41
2022/06/25 09:34:10;;;;;;;5.88;1.50;;;;;;;24.93;44.99;101188.81;5224123;28;20410;-37
2022/06/25 09:36:43;;;;;;;5.45;1.40;;;;;;;25.08;44.66;101181.03;5224956;28;20874;-38
2022/06/25 09:39:15;;;;;;;7.50;2.03;;;;;;;25.23;44.36;101186.78;5198588;28;20423;-42
2022/06/25 09:41:54;;;;;;;11.27;2.00;;;;;;;25.38;43.95;101191.69;5220702;28;20910;-36
2022/06/25 09:44:27;;;;;;;7.18;2.15;;;;;;;25.37;43.93;101181.13;5224114;28;20464;-37
2022/06/25 09:47:01;;;;;;;6.55;1.92;;;;;;;25.29;44.10;101191.25;5218868;28;20422;-37
2022/06/25 09:49:35;;;;;;;7.07;1.77;;;;;;;25.39;43.84;101192.50;5227409;28;20425;-37
2022/06/25 09:52:08;;;;;;;6.70;1.83;;;;;;;25.57;43.63;101195.03;5233221;28;20418;-38
2022/06/25 09:54:41;;;;;;;6.50;1.92;;;;;;;25.82;43.33;101192.03;5230399;28;20994;-37
2022/06/25 09:57:13;;;;;;;6.10;2.15;;;;;;;26.04;42.92;101192.13;5235889;28;20434;-37
2022/06/25 09:59:49;;;;;;;7.63;2.47;;;;;;;26.35;42.79;101193.47;5236494;28;20438;-37
2022/06/25 10:02:21;;;;;;;6.45;1.75;;;;;;;26.66;42.49;101175.84;5232113;28;20427;-40
2022/06/25 10:05:03;;;;;;;6.40;1.75;;;;;;;26.76;42.46;101179.75;5228132;28;20425;-36
2022/06/25 10:10:31;;;;;;;5.30;2.13;;;;;;;26.68;42.36;101173.69;5213288;28;20876;-38
2022/06/25 10:13:04;;;;;;;4.93;1.80;;;;;;;26.71;42.33;101177.00;5225934;28;20423;-37
2022/06/25 10:15:38;;;;;;;5.43;1.88;;;;;;;26.53;42.44;101197.84;5226647;28;20945;-37
2022/06/25 10:18:11;;;;;;;5.65;1.63;;;;;;;26.46;42.71;101197.19;5224404;28;20480;-36
2022/06/25 10:20:45;;;;;;;4.53;1.50;;;;;;;26.42;42.48;101196.03;5229356;28;20875;-39
2022/06/25 10:23:20;;;;;;;11.82;2.80;;;;;;;26.31;42.57;101205.88;5225453;28;20411;-39
2022/06/25 10:25:53;;;;;;;8.80;1.88;;;;;;;26.18;42.43;101204.31;5226324;28;20895;-37
2022/06/25 10:28:28;;;;;;;6.05;1.83;;;;;;;26.20;42.46;101209.47;5227133;28;20415;-38
2022/06/25 10:31:09;;;;;;;7.40;2.10;;;;;;;26.21;42.39;101203.81;5224406;28;20427;-36
2022/06/25 10:33:55;;;;;;;8.27;1.90;;;;;;;26.15;42.41;101207.50;5211026;28;20436;-38
2022/06/25 10:36:49;;;;;;;7.90;1.83;;;;;;;25.99;42.24;101187.47;5226557;28;20451;-39
2022/06/25 10:39:37;;;;;;;13.55;2.58;;;;;;;26.06;42.29;101214.38;5221332;28;20507;-37
2022/06/25 10:45:52;;;;;;;7.05;2.30;;;;;;;25.81;42.44;101227.41;5229260;28;20502;-37
2022/06/25 10:48:27;;;;;;;10.77;2.90;;;;;;;25.57;42.60;101208.56;5226726;28;32008;-37
2022/06/25 10:50:59;;;;;;;8.95;2.00;;;;;;;25.59;42.60;101229.97;5227175;28;20542;-37
2022/06/25 10:53:33;;;;;;;11.70;2.53;;;;;;;25.41;42.74;101234.47;5230275;28;20834;-37
2022/06/25 10:56:23;;;;;;;10.00;2.38;;;;;;;25.18;42.91;101243.47;5212238;28;20531;-37
2022/06/25 10:58:56;;;;;;;10.50;2.53;;;;;;;25.07;43.28;101244.25;5228318;28;20484;-37
2022/06/25 11:01:35;;;;;;;6.65;1.92;;;;;;;24.96;43.35;101248.63;5230461;28;20492;-37
2022/06/25 11:04:12;;;;;;;7.28;1.92;;;;;;;24.90;43.59;101236.06;5231764;28;20429;-37
2022/06/25 11:06:45;;;;;;;10.23;2.38;;;;;;;24.93;43.69;101232.03;5236089;28;20487;-37
2022/06/25 11:09:19;;;;;;;13.02;2.83;;;;;;;25.04;43.83;101245.53;5230423;28;20408;-37
2022/06/25 11:11:52;;;;;;;10.15;2.70;;;;;;;24.92;43.92;101225.00;5229515;28;20510;-37
2022/06/25 11:14:25;;;;;;;10.18;2.50;;;;;;;25.07;44.15;101260.47;5231375;28;21019;-38
2022/06/25 11:16:58;;;;;;;10.23;3.03;;;;;;;25.08;44.14;101244.03;5234166;28;20657;-38
2022/06/25 11:19:30;;;;;;;9.10;1.55;;;;;;;25.15;44.11;101256.59;5223539;28;20416;-37
2022/06/25 11:22:04;;;;;;;8.40;1.98;;;;;;;25.20;43.95;101260.25;5223956;28;20430;-40
2022/06/25 11:28:47;;;;;;;5.70;1.38;;;;;;;25.33;43.79;101244.84;5224860;28;20408;-37
2022/06/25 11:30:23;;;;;;;5.97;1.33;;;;;;;25.87;43.13;101254.38;5226811;28;20402;-40
2022/06/25 11:32:57;;;;;;;4.95;1.92;;;;;;;26.07;42.81;101253.91;5221415;28;20400;-36
2022/06/25 11:35:40;;;;;;;6.55;1.75;;;;;;;26.27;42.69;101253.47;5225651;28;20409;-37
2022/06/25 11:38:17;;;;;;;9.23;1.85;;;;;;;26.53;42.19;101257.44;5226809;28;20440;-38
2022/06/25 11:40:53;;;;;;;6.68;2.10;;;;;;;26.58;41.86;101227.75;5214706;28;20518;-38
2022/06/25 11:43:28;;;;;;;7.65;1.80;;;;;;;27.03;41.50;101251.16;5208090;28;20415;-37
2022/06/25 11:46:01;;;;;;;6.32;1.83;;;;;;;27.27;41.34;101250.97;5231925;28;20426;-37
2022/06/25 11:48:34;;;;;;;12.07;2.40;;;;;;;27.39;41.23;101242.72;5232513;28;20516;-36
2022/06/25 11:51:08;;;;;;;7.15;1.63;;;;;;;27.36;40.99;101233.19;5223181;28;20522;-37
2022/06/25 11:53:40;;;;;;;8.32;2.08;;;;;;;27.43;40.97;101244.66;5230521;28;20434;-38
2022/06/25 11:56:16;;;;;;;9.05;2.22;;;;;;;27.48;40.87;101241.22;5235473;28;20711;-38
2022/06/25 11:58:49;;;;;;;9.65;2.72;;;;;;;27.48;40.63;101247.47;5230637;28;20426;-36
2022/06/25 12:01:29;;;;;;;9.32;2.28;;;;;;;27.44;40.67;101230.06;5208795;28;20483;-37
2022/06/25 12:04:04;;;;;;;9.60;2.05;;;;;;;27.73;40.37;101248.84;5228583;28;20611;-37
2022/06/25 12:06:37;;;;;;;7.00;2.00;;;;;;;27.92;40.12;101252.03;5228570;28;20426;-37
2022/06/25 12:09:09;;;;;;;10.07;2.65;;;;;;;28.08;40.09;101259.25;5229938;28;20489;-38